Time,TemperatureF,DewpointF,PressureIn,WindDirection,WindDirectionDegrees,WindSpeedMPH,WindSpeedGustMPH,Humidity,HourlyPrecipIn,Conditions,Clouds,dailyrainin,SoftwareType,DateUTC
2013-05-18 00:00:00,57.4,41.4,29.91,WSW,248,0.0,0.0,55,0.00,,---,0.00,VWS V14.01,2013-05-18 07:00:00,
2013-05-18 00:05:00,57.2,41.2,29.91,SW,225,0.0,0.0,55,0.00,,---,0.00,VWS V14.01,2013-05-18 07:05:00,
2013-05-18 00:10:00,57.2,41.2,29.91,SW,225,0.0,0.0,55,0.00,,---,0.00,VWS V14.01,2013-05-18 07:10:00,
2013-05-18 00:15:00,57.2,41.7,29.91,SW,225,1.3,1.3,56,0.00,,---,0.00,VWS V14.01,2013-05-18 07:15:00,
2013-05-18 00:20:00,57.0,41.5,29.94,East,90,0.0,0.0,56,0.00,,---,0.00,VWS V14.01,2013-05-18 07:20:00,
2013-05-18 00:25:00,57.0,41.5,29.94,West,270,0.0,0.0,56,0.00,,---,0.00,VWS V14.01,2013-05-18 07:25:00,
2013-05-18 00:30:00,57.0,42.0,29.94,SSW,202,2.0,2.0,57,0.00,,---,0.00,VWS V14.01,2013-05-18 07:30:00,
2013-05-18 00:35:00,56.8,41.8,29.94,SW,225,1.6,1.6,57,0.00,,---,0.00,VWS V14.01,2013-05-18 07:35:00,
2013-05-18 00:40:00,56.8,42.2,29.94,SW,225,2.5,2.5,58,0.00,,---,0.00,VWS V14.01,2013-05-18 07:40:00,
2013-05-18 00:45:00,56.7,42.5,29.94,WSW,248,3.1,3.1,59,0.00,,---,0.00,VWS V14.01,2013-05-18 07:45:00,
2013-05-18 00:50:00,56.7,42.5,29.94,SW,225,1.3,1.3,59,0.00,,---,0.00,VWS V14.01,2013-05-18 07:50:00,
2013-05-18 00:55:00,56.7,42.5,29.94,SW,225,2.2,2.2,59,0.00,,---,0.00,VWS V14.01,2013-05-18 07:55:00,
2013-05-18 01:00:00,56.7,43.4,29.94,South,180,4.3,4.3,61,0.00,,---,0.00,VWS V14.01,2013-05-18 08:00:00,
2013-05-18 01:05:00,56.7,43.4,29.94,ESE,112,0.0,0.0,61,0.00,,---,0.00,VWS V14.01,2013-05-18 08:05:00,
2013-05-18 01:10:00,56.7,43.0,29.94,WSW,248,1.6,1.6,60,0.00,,---,0.00,VWS V14.01,2013-05-18 08:10:00,
2013-05-18 01:16:00,56.5,42.8,29.94,NW,315,0.0,0.0,60,0.00,,---,0.00,VWS V14.01,2013-05-18 08:16:00,
2013-05-18 01:21:00,56.3,42.6,29.94,WNW,292,0.0,0.0,60,0.00,,---,0.00,VWS V14.01,2013-05-18 08:21:00,
2013-05-18 01:26:00,56.3,42.6,29.94,SW,225,0.9,0.9,60,0.00,,---,0.00,VWS V14.01,2013-05-18 08:26:00,
2013-05-18 01:31:00,56.3,42.2,29.94,SSE,158,2.7,2.7,59,0.00,,---,0.00,VWS V14.01,2013-05-18 08:31:00,
2013-05-18 01:36:00,56.1,41.6,29.94,SW,225,0.0,0.0,58,0.00,,---,0.00,VWS V14.01,2013-05-18 08:36:00,
2013-05-18 01:41:00,56.1,41.6,29.94,SW,225,2.2,2.2,58,0.00,,---,0.00,VWS V14.01,2013-05-18 08:41:00,
2013-05-18 01:46:00,55.9,40.9,29.94,NW,315,0.0,0.0,57,0.00,,---,0.00,VWS V14.01,2013-05-18 08:46:00,
2013-05-18 01:51:00,55.8,40.8,29.94,WSW,248,1.3,1.3,57,0.00,,---,0.00,VWS V14.01,2013-05-18 08:51:00,
2013-05-18 01:56:00,55.6,40.2,29.94,SW,225,0.0,0.0,56,0.00,,---,0.00,VWS V14.01,2013-05-18 08:56:00,
2013-05-18 02:01:00,55.4,40.0,29.94,SW,225,0.0,0.0,56,0.00,,---,0.00,VWS V14.01,2013-05-18 09:01:00,
2013-05-18 02:06:00,55.2,39.8,29.94,WSW,248,0.0,0.0,56,0.00,,---,0.00,VWS V14.01,2013-05-18 09:06:00,
2013-05-18 02:11:00,55.0,39.2,29.94,WSW,248,0.0,0.0,55,0.00,,---,0.00,VWS V14.01,2013-05-18 09:11:00,
2013-05-18 02:16:00,54.9,39.0,29.94,SW,225,0.0,0.0,55,0.00,,---,0.00,VWS V14.01,2013-05-18 09:16:00,
2013-05-18 02:21:00,54.7,38.8,29.94,SW,225,2.0,2.0,55,0.00,,---,0.00,VWS V14.01,2013-05-18 09:21:00,
2013-05-18 02:26:00,54.7,38.4,29.94,West,270,0.0,0.0,54,0.00,,---,0.00,VWS V14.01,2013-05-18 09:26:00,
2013-05-18 02:31:00,54.5,38.2,29.94,SSW,202,2.9,2.9,54,0.00,,---,0.00,VWS V14.01,2013-05-18 09:31:00,
2013-05-18 02:37:00,54.5,38.2,29.94,WSW,248,2.0,2.0,54,0.00,,---,0.00,VWS V14.01,2013-05-18 09:37:00,
2013-05-18 02:42:00,54.3,37.6,29.94,WSW,248,0.0,0.0,53,0.00,,---,0.00,VWS V14.01,2013-05-18 09:42:00,
2013-05-18 02:47:00,54.3,37.6,29.94,SW,225,0.0,0.0,53,0.00,,---,0.00,VWS V14.01,2013-05-18 09:47:00,
2013-05-18 02:52:00,54.3,37.6,29.94,WSW,248,0.0,0.0,53,0.00,,---,0.00,VWS V14.01,2013-05-18 09:52:00,
2013-05-18 02:57:00,54.1,37.4,29.94,WSW,248,0.9,0.9,53,0.00,,---,0.00,VWS V14.01,2013-05-18 09:57:00,
2013-05-18 03:02:00,54.1,37.4,29.94,West,270,0.0,0.0,53,0.00,,---,0.00,VWS V14.01,2013-05-18 10:02:00,
2013-05-18 03:07:00,54.1,37.4,29.94,West,270,1.1,1.1,53,0.00,,---,0.00,VWS V14.01,2013-05-18 10:07:00,
2013-05-18 03:12:00,54.0,37.2,29.94,SW,225,0.0,0.0,53,0.00,,---,0.00,VWS V14.01,2013-05-18 10:12:00,
2013-05-18 03:17:00,54.0,37.2,29.94,West,270,0.0,0.0,53,0.00,,---,0.00,VWS V14.01,2013-05-18 10:17:00,
2013-05-18 03:22:00,54.0,37.2,29.94,West,270,0.0,0.0,53,0.00,,---,0.00,VWS V14.01,2013-05-18 10:22:00,
2013-05-18 03:27:00,53.6,37.4,29.94,WNW,292,2.2,2.2,54,0.00,,---,0.00,VWS V14.01,2013-05-18 10:27:00,
2013-05-18 03:32:00,53.4,37.2,29.97,WSW,248,0.0,0.0,54,0.00,,---,0.00,VWS V14.01,2013-05-18 10:32:00,
2013-05-18 03:37:00,53.4,37.7,29.97,SW,225,0.0,0.0,55,0.00,,---,0.00,VWS V14.01,2013-05-18 10:37:00,
2013-05-18 03:42:00,53.4,37.7,29.97,South,180,2.9,2.9,55,0.00,,---,0.00,VWS V14.01,2013-05-18 10:42:00,
2013-05-18 03:47:00,53.4,37.7,29.97,South,180,2.9,2.9,55,0.00,,---,0.00,VWS V14.01,2013-05-18 10:47:00,
2013-05-18 03:52:00,53.4,37.7,29.97,South,180,1.6,1.6,55,0.00,,---,0.00,VWS V14.01,2013-05-18 10:52:00,
2013-05-18 03:58:00,53.1,37.8,29.97,WSW,248,0.0,0.0,56,0.00,,---,0.00,VWS V14.01,2013-05-18 10:58:00,
2013-05-18 04:03:00,52.9,38.1,29.97,WSW,248,0.0,0.0,57,0.00,,---,0.00,VWS V14.01,2013-05-18 11:03:00,
2013-05-18 04:08:00,52.9,38.1,29.97,WSW,248,0.0,0.0,57,0.00,,---,0.00,VWS V14.01,2013-05-18 11:08:00,
2013-05-18 04:13:00,52.7,38.8,29.97,West,270,3.8,3.8,59,0.00,,---,0.00,VWS V14.01,2013-05-18 11:13:00,
2013-05-18 04:18:00,52.5,38.6,29.97,SW,225,0.0,0.0,59,0.00,,---,0.00,VWS V14.01,2013-05-18 11:18:00,
2013-05-18 04:23:00,52.5,38.6,29.97,East,90,2.0,2.0,59,0.00,,---,0.00,VWS V14.01,2013-05-18 11:23:00,
2013-05-18 04:31:00,52.3,38.5,29.97,SW,225,0.0,0.0,59,0.00,,---,0.00,VWS V14.01,2013-05-18 11:31:00,
2013-05-18 04:36:00,52.2,38.7,29.97,WSW,248,0.0,0.0,60,0.00,,---,0.00,VWS V14.01,2013-05-18 11:36:00,
2013-05-18 04:41:00,52.2,38.7,29.97,SSW,202,0.0,0.0,60,0.00,,---,0.00,VWS V14.01,2013-05-18 11:41:00,
2013-05-18 04:46:00,51.8,38.4,29.97,SSW,202,3.4,3.4,60,0.00,,---,0.00,VWS V14.01,2013-05-18 11:46:00,
2013-05-18 04:51:00,51.6,38.6,29.97,SSW,202,2.5,2.5,61,0.00,,---,0.00,VWS V14.01,2013-05-18 11:51:00,
2013-05-18 04:56:00,51.4,38.9,29.97,SSW,202,1.6,1.6,62,0.00,,---,0.00,VWS V14.01,2013-05-18 11:56:00,
2013-05-18 05:01:00,51.1,38.5,29.97,WNW,292,1.1,1.1,62,0.00,,---,0.00,VWS V14.01,2013-05-18 12:01:00,
2013-05-18 05:06:00,50.9,38.8,29.97,SW,225,2.5,2.5,63,0.00,,---,0.00,VWS V14.01,2013-05-18 12:06:00,
2013-05-18 05:11:00,50.7,39.0,29.97,South,180,2.7,2.7,64,0.00,,---,0.00,VWS V14.01,2013-05-18 12:11:00,
2013-05-18 05:16:00,50.5,39.2,29.97,WSW,248,4.0,4.0,65,0.00,,---,0.00,VWS V14.01,2013-05-18 12:16:00,
2013-05-18 05:21:00,50.2,38.5,29.97,WSW,248,0.0,0.0,64,0.00,,---,0.00,VWS V14.01,2013-05-18 12:21:00,
2013-05-18 05:26:00,49.8,38.5,29.97,SW,225,2.7,2.7,65,0.00,,---,0.00,VWS V14.01,2013-05-18 12:26:00,
2013-05-18 05:31:00,49.5,38.6,30.00,SW,225,0.0,0.0,66,0.00,,---,0.00,VWS V14.01,2013-05-18 12:31:00,
2013-05-18 05:37:00,49.3,38.4,30.00,SW,225,0.0,0.0,66,0.00,,---,0.00,VWS V14.01,2013-05-18 12:37:00,
2013-05-18 05:42:00,49.3,38.8,30.00,WSW,248,0.0,0.0,67,0.00,,---,0.00,VWS V14.01,2013-05-18 12:42:00,
2013-05-18 05:47:00,49.3,39.2,30.00,SSW,202,1.6,1.6,68,0.00,,---,0.00,VWS V14.01,2013-05-18 12:47:00,
2013-05-18 05:52:00,49.5,39.3,30.00,SW,225,0.0,0.0,68,0.00,,---,0.00,VWS V14.01,2013-05-18 12:52:00,
2013-05-18 05:57:00,49.5,39.3,30.00,SW,225,1.1,1.1,68,0.00,,---,0.00,VWS V14.01,2013-05-18 12:57:00,
2013-05-18 06:02:00,49.5,39.3,30.00,SSW,202,1.1,1.1,68,0.00,,---,0.00,VWS V14.01,2013-05-18 13:02:00,
2013-05-18 06:07:00,49.5,39.3,30.00,WSW,248,0.0,0.0,68,0.00,,---,0.00,VWS V14.01,2013-05-18 13:07:00,
2013-05-18 06:12:00,49.5,39.0,30.00,SSW,202,2.0,2.0,67,0.00,,---,0.00,VWS V14.01,2013-05-18 13:12:00,
2013-05-18 06:17:00,49.6,39.2,30.00,SW,225,0.0,0.0,67,0.00,,---,0.00,VWS V14.01,2013-05-18 13:17:00,
2013-05-18 06:22:00,49.6,39.2,30.00,East,90,0.0,0.0,67,0.00,,---,0.00,VWS V14.01,2013-05-18 13:22:00,
2013-05-18 06:27:00,49.6,39.2,30.00,SW,225,0.0,0.0,67,0.00,,---,0.00,VWS V14.01,2013-05-18 13:27:00,
2013-05-18 06:32:00,49.6,39.2,30.00,WNW,292,0.0,0.0,67,0.00,,---,0.00,VWS V14.01,2013-05-18 13:32:00,
2013-05-18 06:37:00,49.8,39.3,30.00,SW,225,0.0,0.0,67,0.00,,---,0.00,VWS V14.01,2013-05-18 13:37:00,
2013-05-18 06:42:00,49.8,39.3,30.00,SSW,202,2.9,2.9,67,0.00,,---,0.00,VWS V14.01,2013-05-18 13:42:00,
2013-05-18 06:48:00,49.8,38.9,30.00,SW,225,1.6,1.6,66,0.00,,---,0.00,VWS V14.01,2013-05-18 13:48:00,
2013-05-18 06:53:00,49.8,38.9,30.00,SE,135,0.0,0.0,66,0.00,,---,0.00,VWS V14.01,2013-05-18 13:53:00,
2013-05-18 06:58:00,49.8,38.9,30.00,NW,315,0.0,0.0,66,0.00,,---,0.00,VWS V14.01,2013-05-18 13:58:00,
2013-05-18 07:03:00,49.8,38.9,29.97,SSW,202,0.0,0.0,66,0.00,,---,0.00,VWS V14.01,2013-05-18 14:03:00,
2013-05-18 07:08:00,49.8,38.9,29.97,ESE,112,2.7,2.7,66,0.00,,---,0.00,VWS V14.01,2013-05-18 14:08:00,
2013-05-18 07:13:00,49.8,38.5,29.97,SW,225,4.3,4.3,65,0.00,,---,0.00,VWS V14.01,2013-05-18 14:13:00,
2013-05-18 07:18:00,49.8,38.9,30.00,SE,135,5.6,5.6,66,0.00,,---,0.00,VWS V14.01,2013-05-18 14:18:00,
2013-05-18 07:23:00,49.8,38.5,30.00,SW,225,0.0,0.0,65,0.00,,---,0.00,VWS V14.01,2013-05-18 14:23:00,
2013-05-18 07:28:00,49.8,38.5,30.00,South,180,1.3,1.3,65,0.00,,---,0.00,VWS V14.01,2013-05-18 14:28:00,
2013-05-18 07:33:00,49.6,38.0,30.00,SSW,202,2.7,2.7,64,0.00,,---,0.00,VWS V14.01,2013-05-18 14:33:00,
2013-05-18 07:38:00,49.6,38.0,30.00,ESE,112,3.6,3.6,64,0.00,,---,0.00,VWS V14.01,2013-05-18 14:38:00,
2013-05-18 07:43:00,49.8,38.5,30.00,South,180,0.0,0.0,65,0.00,,---,0.00,VWS V14.01,2013-05-18 14:43:00,
2013-05-18 07:48:00,49.8,38.5,30.00,South,180,2.0,2.0,65,0.00,,---,0.00,VWS V14.01,2013-05-18 14:48:00,
2013-05-18 07:53:00,50.0,38.3,30.00,West,270,0.0,0.0,64,0.00,,---,0.00,VWS V14.01,2013-05-18 14:53:00,
2013-05-18 07:58:00,50.2,38.1,30.00,SW,225,3.4,3.4,63,0.00,,---,0.00,VWS V14.01,2013-05-18 14:58:00,
2013-05-18 08:04:00,50.2,38.1,30.00,WSW,248,0.0,0.0,63,0.00,,---,0.00,VWS V14.01,2013-05-18 15:04:00,
2013-05-18 08:09:00,50.2,38.5,30.00,SW,225,2.9,2.9,64,0.00,,---,0.00,VWS V14.01,2013-05-18 15:09:00,
2013-05-18 08:14:00,50.2,38.1,30.00,NW,315,0.0,0.0,63,0.00,,---,0.00,VWS V14.01,2013-05-18 15:14:00,
2013-05-18 08:19:00,50.4,38.3,30.03,WSW,248,0.0,0.0,63,0.00,,---,0.00,VWS V14.01,2013-05-18 15:19:00,
2013-05-18 08:24:00,50.9,38.8,30.03,SW,225,0.0,0.0,63,0.00,,---,0.00,VWS V14.01,2013-05-18 15:24:00,
2013-05-18 08:29:00,51.3,38.7,30.03,SW,225,0.0,0.0,62,0.00,,---,0.00,VWS V14.01,2013-05-18 15:29:00,
2013-05-18 08:34:00,51.6,38.6,30.00,SSW,202,2.9,2.9,61,0.00,,---,0.00,VWS V14.01,2013-05-18 15:34:00,
2013-05-18 08:39:00,52.5,39.5,30.00,North,0,0.0,0.0,61,0.00,,---,0.00,VWS V14.01,2013-05-18 15:39:00,
2013-05-18 08:44:00,52.9,39.0,30.00,South,180,4.0,4.0,59,0.00,,---,0.00,VWS V14.01,2013-05-18 15:44:00,
2013-05-18 08:49:00,53.4,39.0,30.00,South,180,2.5,2.5,58,0.00,,---,0.00,VWS V14.01,2013-05-18 15:49:00,
2013-05-18 08:54:00,53.4,38.6,30.00,SSW,202,0.0,0.0,57,0.00,,---,0.00,VWS V14.01,2013-05-18 15:54:00,
2013-05-18 08:59:00,54.1,39.3,30.00,WNW,292,0.0,0.0,57,0.00,,---,0.00,VWS V14.01,2013-05-18 15:59:00,
2013-05-18 09:04:00,54.3,39.0,30.00,West,270,0.0,0.0,56,0.00,,---,0.00,VWS V14.01,2013-05-18 16:04:00,
2013-05-18 09:09:00,54.0,38.2,30.00,SSW,202,0.0,0.0,55,0.00,,---,0.00,VWS V14.01,2013-05-18 16:09:00,
2013-05-18 09:14:00,54.5,38.2,30.00,NNW,338,0.0,0.0,54,0.00,,---,0.00,VWS V14.01,2013-05-18 16:14:00,
2013-05-18 09:19:00,55.8,39.4,30.03,WSW,248,2.0,2.0,54,0.00,,---,0.00,VWS V14.01,2013-05-18 16:19:00,
2013-05-18 09:25:00,55.9,38.6,30.03,SSE,158,0.9,0.9,52,0.00,,---,0.00,VWS V14.01,2013-05-18 16:25:00,
2013-05-18 09:30:00,55.6,37.8,30.03,SSW,202,8.1,8.1,51,0.00,,---,0.00,VWS V14.01,2013-05-18 16:30:00,
2013-05-18 09:35:00,54.9,37.6,30.03,WSW,248,3.6,3.6,52,0.00,,---,0.00,VWS V14.01,2013-05-18 16:35:00,
2013-05-18 09:40:00,54.7,37.4,30.03,South,180,3.6,3.6,52,0.00,,---,0.00,VWS V14.01,2013-05-18 16:40:00,
2013-05-18 09:45:00,54.3,36.6,30.03,SW,225,0.0,0.0,51,0.00,,---,0.00,VWS V14.01,2013-05-18 16:45:00,
2013-05-18 09:50:00,54.3,37.1,30.03,SW,225,1.6,1.6,52,0.00,,---,0.00,VWS V14.01,2013-05-18 16:50:00,
2013-05-18 09:55:00,54.1,36.9,30.03,WSW,248,6.9,6.9,52,0.00,,---,0.00,VWS V14.01,2013-05-18 16:55:00,
2013-05-18 10:00:00,54.3,37.1,30.03,SSW,202,2.5,2.5,52,0.00,,---,0.00,VWS V14.01,2013-05-18 17:00:00,
2013-05-18 10:05:00,54.3,37.1,30.03,SSW,202,2.9,2.9,52,0.00,,---,0.00,VWS V14.01,2013-05-18 17:05:00,
2013-05-18 10:10:00,54.7,37.9,30.03,South,180,1.6,1.6,53,0.00,,---,0.00,VWS V14.01,2013-05-18 17:10:00,
2013-05-18 10:15:00,54.5,37.2,30.03,SSW,202,1.6,1.6,52,0.00,,---,0.00,VWS V14.01,2013-05-18 17:15:00,
2013-05-18 10:20:00,55.2,37.9,30.03,SSW,202,0.0,0.0,52,0.00,,---,0.00,VWS V14.01,2013-05-18 17:20:00,
2013-05-18 10:25:00,55.2,37.9,30.03,South,180,3.8,3.8,52,0.00,,---,0.00,VWS V14.01,2013-05-18 17:25:00,
2013-05-18 10:30:00,55.2,37.9,30.03,NE,45,1.1,1.1,52,0.00,,---,0.00,VWS V14.01,2013-05-18 17:30:00,
2013-05-18 10:35:00,54.7,37.9,30.03,SW,225,0.0,0.0,53,0.00,,---,0.00,VWS V14.01,2013-05-18 17:35:00,
2013-05-18 10:40:00,54.7,37.9,30.03,North,0,0.0,0.0,53,0.00,,---,0.00,VWS V14.01,2013-05-18 17:40:00,
2013-05-18 10:46:00,54.7,37.9,30.03,ESE,112,2.5,2.5,53,0.00,,---,0.00,VWS V14.01,2013-05-18 17:46:00,
2013-05-18 10:51:00,54.7,37.9,30.03,ESE,112,2.0,2.0,53,0.00,,---,0.00,VWS V14.01,2013-05-18 17:51:00,
2013-05-18 10:56:00,54.9,37.6,30.03,SW,225,1.6,1.6,52,0.00,,---,0.00,VWS V14.01,2013-05-18 17:56:00,
2013-05-18 11:01:00,54.3,37.6,30.03,SW,225,0.0,0.0,53,0.00,,---,0.00,VWS V14.01,2013-05-18 18:01:00,
2013-05-18 11:06:00,54.3,37.6,30.03,West,270,0.0,0.0,53,0.00,,---,0.00,VWS V14.01,2013-05-18 18:06:00,
2013-05-18 11:11:00,53.4,37.2,30.03,WSW,248,0.0,0.0,54,0.00,,---,0.00,VWS V14.01,2013-05-18 18:11:00,
2013-05-18 11:16:00,53.6,37.4,30.03,WSW,248,0.0,0.0,54,0.00,,---,0.00,VWS V14.01,2013-05-18 18:16:00,
2013-05-18 11:21:00,52.9,38.1,30.06,SW,225,2.9,2.9,57,0.00,,---,0.00,VWS V14.01,2013-05-18 18:21:00,
2013-05-18 11:26:00,52.3,38.5,30.06,WSW,248,0.0,0.0,59,0.00,,---,0.00,VWS V14.01,2013-05-18 18:26:00,
2013-05-18 11:31:00,52.0,39.0,30.06,WSW,248,0.0,0.0,61,0.00,,---,0.00,VWS V14.01,2013-05-18 18:31:00,
2013-05-18 11:36:00,52.0,39.4,30.06,SW,225,0.0,0.0,62,0.00,,---,0.00,VWS V14.01,2013-05-18 18:36:00,
2013-05-18 11:41:00,52.0,39.4,30.06,WSW,248,0.0,0.0,62,0.00,,---,0.00,VWS V14.01,2013-05-18 18:41:00,
2013-05-18 11:46:00,52.0,40.6,30.06,SSE,158,1.3,1.3,65,0.00,,---,0.00,VWS V14.01,2013-05-18 18:46:00,
2013-05-18 11:51:00,51.8,40.0,30.06,WNW,292,0.0,0.0,64,0.00,,---,0.00,VWS V14.01,2013-05-18 18:51:00,
2013-05-18 11:56:00,52.0,40.2,30.06,West,270,0.0,0.0,64,0.00,,---,0.00,VWS V14.01,2013-05-18 18:56:00,
2013-05-18 12:02:00,52.2,40.8,30.06,SSW,202,1.6,1.6,65,0.00,,---,0.00,VWS V14.01,2013-05-18 19:02:00,
2013-05-18 12:07:00,52.2,40.8,30.06,SW,225,0.0,0.0,65,0.00,,---,0.00,VWS V14.01,2013-05-18 19:07:00,
2013-05-18 12:12:00,52.7,41.3,30.06,North,0,0.0,0.0,65,0.00,,---,0.00,VWS V14.01,2013-05-18 19:12:00,
2013-05-18 12:17:00,53.2,42.2,30.06,WSW,248,0.0,0.0,66,0.00,,---,0.00,VWS V14.01,2013-05-18 19:17:00,
2013-05-18 12:22:00,53.6,41.7,30.06,NE,45,1.3,1.3,64,0.00,,---,0.00,VWS V14.01,2013-05-18 19:22:00,
2013-05-18 12:27:00,54.0,42.1,30.06,SSE,158,1.3,1.3,64,0.00,,---,0.00,VWS V14.01,2013-05-18 19:27:00,
2013-05-18 12:32:00,54.7,41.9,30.06,ENE,68,0.0,0.0,62,0.00,,---,0.00,VWS V14.01,2013-05-18 19:32:00,
2013-05-18 12:37:00,55.4,42.6,30.06,North,0,2.0,2.0,62,0.00,,---,0.00,VWS V14.01,2013-05-18 19:37:00,
2013-05-18 12:42:00,55.6,41.9,30.06,North,0,2.5,2.5,60,0.00,,---,0.00,VWS V14.01,2013-05-18 19:42:00,
2013-05-18 12:47:00,55.9,42.7,30.03,North,0,0.0,0.0,61,0.00,,---,0.00,VWS V14.01,2013-05-18 19:47:00,
2013-05-18 12:52:00,56.1,42.4,30.03,West,270,0.0,0.0,60,0.00,,---,0.00,VWS V14.01,2013-05-18 19:52:00,
2013-05-18 12:57:00,56.8,43.1,30.03,SSW,202,0.0,0.0,60,0.00,,---,0.00,VWS V14.01,2013-05-18 19:57:00,
2013-05-18 13:02:00,57.6,42.9,30.03,ENE,68,0.0,0.0,58,0.00,,---,0.00,VWS V14.01,2013-05-18 20:02:00,
2013-05-18 13:07:00,58.5,42.8,30.03,NNW,338,0.0,0.0,56,0.00,,---,0.00,VWS V14.01,2013-05-18 20:07:00,
2013-05-18 13:12:00,59.0,42.9,30.03,WSW,248,0.0,0.0,55,0.00,,---,0.00,VWS V14.01,2013-05-18 20:12:00,
2013-05-18 13:18:00,59.7,43.1,30.03,SW,225,0.0,0.0,54,0.00,,---,0.00,VWS V14.01,2013-05-18 20:18:00,
2013-05-18 13:23:00,60.3,42.6,30.03,South,180,3.8,3.8,52,0.00,,---,0.00,VWS V14.01,2013-05-18 20:23:00,
2013-05-18 13:28:00,60.6,41.9,30.03,NNW,338,0.0,0.0,50,0.00,,---,0.00,VWS V14.01,2013-05-18 20:28:00,
2013-05-18 13:33:00,61.7,42.9,30.03,South,180,0.0,0.0,50,0.00,,---,0.00,VWS V14.01,2013-05-18 20:33:00,
2013-05-18 13:38:00,61.7,41.3,30.03,SSW,202,2.5,2.5,47,0.00,,---,0.00,VWS V14.01,2013-05-18 20:38:00,
2013-05-18 13:43:00,62.2,41.2,30.03,East,90,4.9,4.9,46,0.00,,---,0.00,VWS V14.01,2013-05-18 20:43:00,
2013-05-18 13:48:00,63.0,41.3,30.03,South,180,2.0,2.0,45,0.00,,---,0.00,VWS V14.01,2013-05-18 20:48:00,
2013-05-18 13:53:00,63.5,41.2,30.03,NNE,22,2.5,2.5,44,0.00,,---,0.00,VWS V14.01,2013-05-18 20:53:00,
2013-05-18 13:58:00,63.0,40.1,30.03,NNE,22,2.2,2.2,43,0.00,,---,0.00,VWS V14.01,2013-05-18 20:58:00,
2013-05-18 14:03:00,63.7,40.2,30.03,SE,135,3.1,3.1,42,0.00,,---,0.00,VWS V14.01,2013-05-18 21:03:00,
2013-05-18 14:08:00,64.4,40.2,30.03,SE,135,4.7,4.7,41,0.00,,---,0.00,VWS V14.01,2013-05-18 21:08:00,
2013-05-18 14:13:00,63.9,39.7,30.03,WNW,292,0.0,0.0,41,0.00,,---,0.00,VWS V14.01,2013-05-18 21:13:00,
2013-05-18 14:18:00,63.7,38.3,30.06,WSW,248,0.0,0.0,39,0.00,,---,0.00,VWS V14.01,2013-05-18 21:18:00,
2013-05-18 14:23:00,63.9,39.1,30.06,WSW,248,0.0,0.0,40,0.00,,---,0.00,VWS V14.01,2013-05-18 21:23:00,
2013-05-18 14:28:00,63.3,37.3,30.06,SSW,202,3.8,3.8,38,0.00,,---,0.00,VWS V14.01,2013-05-18 21:28:00,
2013-05-18 14:33:00,62.2,37.0,30.03,WSW,248,1.1,1.1,39,0.00,,---,0.00,VWS V14.01,2013-05-18 21:33:00,
2013-05-18 14:39:00,61.5,37.0,30.03,SW,225,1.6,1.6,40,0.00,,---,0.00,VWS V14.01,2013-05-18 21:39:00,
2013-05-18 14:44:00,60.8,36.3,30.03,SW,225,0.0,0.0,40,0.00,,---,0.00,VWS V14.01,2013-05-18 21:44:00,
2013-05-18 14:49:00,60.3,36.5,30.00,SSW,202,2.7,2.7,41,0.00,,---,0.00,VWS V14.01,2013-05-18 21:49:00,
2013-05-18 14:54:00,59.9,36.2,30.00,SW,225,0.0,0.0,41,0.00,,---,0.00,VWS V14.01,2013-05-18 21:54:00,
2013-05-18 14:59:00,59.7,37.2,30.00,SSW,202,4.3,4.3,43,0.00,,---,0.00,VWS V14.01,2013-05-18 21:59:00,
2013-05-18 15:04:00,59.5,37.6,30.00,WSW,248,3.8,3.8,44,0.00,,---,0.00,VWS V14.01,2013-05-18 22:04:00,
2013-05-18 15:09:00,59.4,37.5,30.00,SW,225,0.0,0.0,44,0.00,,---,0.00,VWS V14.01,2013-05-18 22:09:00,
2013-05-18 15:14:00,59.5,37.6,30.00,WNW,292,0.0,0.0,44,0.00,,---,0.00,VWS V14.01,2013-05-18 22:14:00,
2013-05-18 15:19:00,59.9,38.0,30.00,WSW,248,0.0,0.0,44,0.00,,---,0.00,VWS V14.01,2013-05-18 22:19:00,
2013-05-18 15:24:00,59.9,38.0,30.00,WSW,248,1.1,1.1,44,0.00,,---,0.00,VWS V14.01,2013-05-18 22:24:00,
2013-05-18 15:29:00,59.9,38.0,30.00,West,270,0.0,0.0,44,0.00,,---,0.00,VWS V14.01,2013-05-18 22:29:00,
2013-05-18 15:34:00,59.9,38.0,30.00,WSW,248,0.0,0.0,44,0.00,,---,0.00,VWS V14.01,2013-05-18 22:34:00,
2013-05-18 15:39:00,59.9,38.5,30.00,WSW,248,3.4,3.4,45,0.00,,---,0.00,VWS V14.01,2013-05-18 22:39:00,
2013-05-18 15:44:00,59.9,38.5,30.00,WSW,248,2.0,2.0,45,0.00,,---,0.00,VWS V14.01,2013-05-18 22:44:00,
2013-05-18 15:49:00,59.5,37.6,30.00,SW,225,0.0,0.0,44,0.00,,---,0.00,VWS V14.01,2013-05-18 22:49:00,
2013-05-18 15:55:00,59.5,37.6,30.00,South,180,2.9,2.9,44,0.00,,---,0.00,VWS V14.01,2013-05-18 22:55:00,
2013-05-18 16:00:00,59.9,38.0,30.00,SSW,202,1.1,1.1,44,0.00,,---,0.00,VWS V14.01,2013-05-18 23:00:00,
2013-05-18 16:05:00,60.3,38.3,30.00,SW,225,0.0,0.0,44,0.00,,---,0.00,VWS V14.01,2013-05-18 23:05:00,
2013-05-18 16:10:00,60.6,38.6,30.00,SE,135,0.0,0.0,44,0.00,,---,0.00,VWS V14.01,2013-05-18 23:10:00,
2013-05-18 16:15:00,61.2,38.5,30.00,SSW,202,0.0,0.0,43,0.00,,---,0.00,VWS V14.01,2013-05-18 23:15:00,
2013-05-18 16:20:00,61.7,39.0,30.00,SSW,202,2.2,2.2,43,0.00,,---,0.00,VWS V14.01,2013-05-18 23:20:00,
2013-05-18 16:25:00,62.4,37.8,30.00,ESE,112,6.0,6.0,40,0.00,,---,0.00,VWS V14.01,2013-05-18 23:25:00,
2013-05-18 16:30:00,62.6,38.0,30.00,SE,135,2.7,2.7,40,0.00,,---,0.00,VWS V14.01,2013-05-18 23:30:00,
2013-05-18 16:35:00,63.3,39.2,29.97,SE,135,3.4,3.4,41,0.00,,---,0.00,VWS V14.01,2013-05-18 23:35:00,
2013-05-18 16:40:00,63.5,38.1,29.97,South,180,3.1,3.1,39,0.00,,---,0.00,VWS V14.01,2013-05-18 23:40:00,
2013-05-18 16:45:00,63.5,38.1,29.97,SSE,158,4.0,4.0,39,0.00,,---,0.00,VWS V14.01,2013-05-18 23:45:00,
2013-05-18 16:50:00,64.0,37.3,30.00,SW,225,0.0,0.0,37,0.00,,---,0.00,VWS V14.01,2013-05-18 23:50:00,
2013-05-18 16:55:00,64.0,37.3,30.00,SSE,158,5.4,5.4,37,0.00,,---,0.00,VWS V14.01,2013-05-18 23:55:00,
2013-05-18 17:00:00,64.4,36.9,30.00,ESE,112,4.7,4.7,36,0.00,,---,0.00,VWS V14.01,2013-05-19 00:00:00,
2013-05-18 17:05:00,64.4,36.9,30.00,SE,135,1.6,1.6,36,0.00,,---,0.00,VWS V14.01,2013-05-19 00:05:00,
2013-05-18 17:11:00,64.4,36.2,30.00,WSW,248,0.0,0.0,35,0.00,,---,0.00,VWS V14.01,2013-05-19 00:11:00,
2013-05-18 17:16:00,64.0,35.9,30.00,SE,135,2.0,2.0,35,0.00,,---,0.00,VWS V14.01,2013-05-19 00:16:00,
2013-05-18 17:21:00,63.9,35.7,30.00,SSW,202,0.0,0.0,35,0.00,,---,0.00,VWS V14.01,2013-05-19 00:21:00,
2013-05-18 17:26:00,63.9,35.7,30.00,SSW,202,3.4,3.4,35,0.00,,---,0.00,VWS V14.01,2013-05-19 00:26:00,
2013-05-18 17:31:00,63.9,35.7,30.00,WSW,248,0.0,0.0,35,0.00,,---,0.00,VWS V14.01,2013-05-19 00:31:00,
2013-05-18 17:36:00,63.9,35.7,30.00,West,270,0.0,0.0,35,0.00,,---,0.00,VWS V14.01,2013-05-19 00:36:00,
2013-05-18 17:41:00,64.8,36.5,30.00,SW,225,0.0,0.0,35,0.00,,---,0.00,VWS V14.01,2013-05-19 00:41:00,
2013-05-18 17:46:00,64.0,35.9,30.00,East,90,3.4,3.4,35,0.00,,---,0.00,VWS V14.01,2013-05-19 00:46:00,
2013-05-18 17:51:00,64.0,35.9,30.00,South,180,0.0,0.0,35,0.00,,---,0.00,VWS V14.01,2013-05-19 00:51:00,
2013-05-18 17:56:00,64.6,36.3,30.00,SSW,202,3.4,3.4,35,0.00,,---,0.00,VWS V14.01,2013-05-19 00:56:00,
2013-05-18 18:01:00,63.5,36.1,30.00,SW,225,2.7,2.7,36,0.00,,---,0.00,VWS V14.01,2013-05-19 01:01:00,
2013-05-18 18:06:00,63.0,35.6,30.00,WSW,248,2.9,2.9,36,0.00,,---,0.00,VWS V14.01,2013-05-19 01:06:00,
2013-05-18 18:11:00,63.0,35.6,30.00,WSW,248,0.0,0.0,36,0.00,,---,0.00,VWS V14.01,2013-05-19 01:11:00,
2013-05-18 18:16:00,62.1,35.5,30.00,SSE,158,2.0,2.0,37,0.00,,---,0.00,VWS V14.01,2013-05-19 01:16:00,
2013-05-18 18:21:00,61.9,36.0,30.00,SSW,202,1.6,1.6,38,0.00,,---,0.00,VWS V14.01,2013-05-19 01:21:00,
2013-05-18 18:27:00,62.1,36.8,30.00,SSW,202,0.0,0.0,39,0.00,,---,0.00,VWS V14.01,2013-05-19 01:27:00,
2013-05-18 18:32:00,61.9,36.0,30.00,SSW,202,0.0,0.0,38,0.00,,---,0.00,VWS V14.01,2013-05-19 01:32:00,
2013-05-18 18:37:00,61.3,36.2,30.00,SSW,202,1.6,1.6,39,0.00,,---,0.00,VWS V14.01,2013-05-19 01:37:00,
2013-05-18 18:42:00,61.3,36.8,30.00,South,180,3.6,3.6,40,0.00,,---,0.00,VWS V14.01,2013-05-19 01:42:00,
2013-05-18 18:47:00,60.8,36.3,30.03,South,180,4.0,4.0,40,0.00,,---,0.00,VWS V14.01,2013-05-19 01:47:00,
2013-05-18 18:52:00,60.8,36.3,30.03,South,180,2.9,2.9,40,0.00,,---,0.00,VWS V14.01,2013-05-19 01:52:00,
2013-05-18 18:57:00,60.6,36.8,30.03,South,180,0.0,0.0,41,0.00,,---,0.00,VWS V14.01,2013-05-19 01:57:00,
2013-05-18 19:02:00,60.4,37.3,30.03,SE,135,1.6,1.6,42,0.00,,---,0.00,VWS V14.01,2013-05-19 02:02:00,
2013-05-18 19:07:00,60.3,37.1,30.03,South,180,2.9,2.9,42,0.00,,---,0.00,VWS V14.01,2013-05-19 02:07:00,
2013-05-18 19:12:00,60.1,37.5,30.03,SSW,202,0.0,0.0,43,0.00,,---,0.00,VWS V14.01,2013-05-19 02:12:00,
2013-05-18 19:17:00,59.9,38.0,30.00,SW,225,0.0,0.0,44,0.00,,---,0.00,VWS V14.01,2013-05-19 02:17:00,
2013-05-18 19:22:00,59.7,37.8,30.00,SE,135,1.6,1.6,44,0.00,,---,0.00,VWS V14.01,2013-05-19 02:22:00,
2013-05-18 19:27:00,59.5,37.6,30.00,SW,225,0.0,0.0,44,0.00,,---,0.00,VWS V14.01,2013-05-19 02:27:00,
2013-05-18 19:32:00,59.4,38.0,30.03,ESE,112,2.5,2.5,45,0.00,,---,0.00,VWS V14.01,2013-05-19 02:32:00,
2013-05-18 19:38:00,59.2,37.9,30.03,South,180,2.7,2.7,45,0.00,,---,0.00,VWS V14.01,2013-05-19 02:38:00,
2013-05-18 19:43:00,59.0,37.7,30.03,South,180,2.5,2.5,45,0.00,,---,0.00,VWS V14.01,2013-05-19 02:43:00,
2013-05-18 19:48:00,58.8,38.1,30.03,South,180,3.4,3.4,46,0.00,,---,0.00,VWS V14.01,2013-05-19 02:48:00,
2013-05-18 19:53:00,58.6,37.9,30.03,SSW,202,1.6,1.6,46,0.00,,---,0.00,VWS V14.01,2013-05-19 02:53:00,
2013-05-18 19:58:00,58.5,37.8,30.03,South,180,3.6,3.6,46,0.00,,---,0.00,VWS V14.01,2013-05-19 02:58:00,
2013-05-18 20:03:00,58.3,37.6,30.03,South,180,2.7,2.7,46,0.00,,---,0.00,VWS V14.01,2013-05-19 03:03:00,
2013-05-18 20:08:00,58.1,38.0,30.03,SSW,202,0.0,0.0,47,0.00,,---,0.00,VWS V14.01,2013-05-19 03:08:00,
2013-05-18 20:13:00,57.9,37.8,30.03,South,180,2.9,2.9,47,0.00,,---,0.00,VWS V14.01,2013-05-19 03:13:00,
2013-05-18 20:18:00,57.7,37.7,30.06,SW,225,0.0,0.0,47,0.00,,---,0.00,VWS V14.01,2013-05-19 03:18:00,
2013-05-18 20:23:00,57.6,37.5,30.06,South,180,0.0,0.0,47,0.00,,---,0.00,VWS V14.01,2013-05-19 03:23:00,
2013-05-18 20:28:00,57.4,37.9,30.06,SSW,202,1.3,1.3,48,0.00,,---,0.00,VWS V14.01,2013-05-19 03:28:00,
2013-05-18 20:33:00,57.4,37.9,30.06,South,180,2.7,2.7,48,0.00,,---,0.00,VWS V14.01,2013-05-19 03:33:00,
2013-05-18 20:38:00,57.2,37.7,30.06,SSW,202,2.9,2.9,48,0.00,,---,0.00,VWS V14.01,2013-05-19 03:38:00,
2013-05-18 20:43:00,56.8,37.9,30.06,South,180,2.0,2.0,49,0.00,,---,0.00,VWS V14.01,2013-05-19 03:43:00,
2013-05-18 20:48:00,56.7,37.7,30.09,SSW,202,2.9,2.9,49,0.00,,---,0.00,VWS V14.01,2013-05-19 03:48:00,
2013-05-18 20:53:00,56.7,37.7,30.09,SSE,158,2.7,2.7,49,0.00,,---,0.00,VWS V14.01,2013-05-19 03:53:00,
2013-05-18 20:58:00,56.5,37.6,30.09,South,180,0.0,0.0,49,0.00,,---,0.00,VWS V14.01,2013-05-19 03:58:00,
2013-05-18 21:01:00,56.5,37.6,30.09,SW,225,0.0,0.0,49,0.00,,---,0.00,VWS V14.01,2013-05-19 04:01:00,
2013-05-18 21:02:00,56.5,37.6,30.03,SSW,202,0.0,0.0,49,0.00,,---,0.00,VWS V14.01,2013-05-19 04:02:00,
2013-05-18 21:07:00,56.5,37.0,30.03,SW,225,0.0,0.0,48,0.00,,---,0.00,VWS V14.01,2013-05-19 04:07:00,
2013-05-18 21:12:00,56.3,36.9,30.03,SW,225,0.0,0.0,48,0.00,,---,0.00,VWS V14.01,2013-05-19 04:12:00,
2013-05-18 21:17:00,56.3,36.9,30.06,SW,225,1.1,1.1,48,0.00,,---,0.00,VWS V14.01,2013-05-19 04:17:00,
2013-05-18 21:22:00,56.3,36.3,30.06,SW,225,0.0,0.0,47,0.00,,---,0.00,VWS V14.01,2013-05-19 04:22:00,
2013-05-18 21:27:00,56.3,36.3,30.06,SW,225,0.0,0.0,47,0.00,,---,0.00,VWS V14.01,2013-05-19 04:27:00,
2013-05-18 21:32:00,56.3,36.3,30.06,WSW,248,1.6,1.6,47,0.00,,---,0.00,VWS V14.01,2013-05-19 04:32:00,
2013-05-18 21:37:00,56.1,36.2,30.06,WSW,248,0.0,0.0,47,0.00,,---,0.00,VWS V14.01,2013-05-19 04:37:00,
2013-05-18 21:42:00,55.9,36.0,30.06,SW,225,0.0,0.0,47,0.00,,---,0.00,VWS V14.01,2013-05-19 04:42:00,
2013-05-18 21:47:00,55.8,35.8,30.06,SW,225,0.0,0.0,47,0.00,,---,0.00,VWS V14.01,2013-05-19 04:47:00,
2013-05-18 21:52:00,55.8,35.8,30.06,SW,225,1.3,1.3,47,0.00,,---,0.00,VWS V14.01,2013-05-19 04:52:00,
2013-05-18 21:57:00,55.8,35.8,30.06,NNW,338,0.0,0.0,47,0.00,,---,0.00,VWS V14.01,2013-05-19 04:57:00,
2013-05-18 22:03:00,55.6,35.7,30.06,SW,225,0.9,0.9,47,0.00,,---,0.00,VWS V14.01,2013-05-19 05:03:00,
2013-05-18 22:08:00,55.6,35.7,30.06,WSW,248,2.0,2.0,47,0.00,,---,0.00,VWS V14.01,2013-05-19 05:08:00,
2013-05-18 22:13:00,55.4,35.5,30.06,SW,225,1.3,1.3,47,0.00,,---,0.00,VWS V14.01,2013-05-19 05:13:00,
2013-05-18 22:18:00,55.2,35.4,30.09,WSW,248,0.0,0.0,47,0.00,,---,0.00,VWS V14.01,2013-05-19 05:18:00,
2013-05-18 22:23:00,55.0,35.2,30.09,South,180,0.9,0.9,47,0.00,,---,0.00,VWS V14.01,2013-05-19 05:23:00,
2013-05-18 22:28:00,55.0,35.2,30.09,WSW,248,3.4,3.4,47,0.00,,---,0.00,VWS V14.01,2013-05-19 05:28:00,
2013-05-18 22:33:00,54.9,34.5,30.06,South,180,0.9,0.9,46,0.00,,---,0.00,VWS V14.01,2013-05-19 05:33:00,
2013-05-18 22:38:00,54.9,34.5,30.06,SW,225,2.5,2.5,46,0.00,,---,0.00,VWS V14.01,2013-05-19 05:38:00,
2013-05-18 22:43:00,54.7,34.3,30.06,WSW,248,4.3,4.3,46,0.00,,---,0.00,VWS V14.01,2013-05-19 05:43:00,
2013-05-18 22:48:00,54.7,34.3,30.09,WNW,292,0.0,0.0,46,0.00,,---,0.00,VWS V14.01,2013-05-19 05:48:00,
2013-05-18 22:53:00,54.7,34.9,30.09,SW,225,0.0,0.0,47,0.00,,---,0.00,VWS V14.01,2013-05-19 05:53:00,
2013-05-18 22:58:00,54.7,34.9,30.09,West,270,0.0,0.0,47,0.00,,---,0.00,VWS V14.01,2013-05-19 05:58:00,
2013-05-18 23:03:00,54.9,34.5,30.09,SW,225,1.6,1.6,46,0.00,,---,0.00,VWS V14.01,2013-05-19 06:03:00,
2013-05-18 23:08:00,54.7,34.9,30.09,SW,225,1.3,1.3,47,0.00,,---,0.00,VWS V14.01,2013-05-19 06:08:00,
2013-05-18 23:13:00,54.5,34.7,30.09,NW,315,1.1,1.1,47,0.00,,---,0.00,VWS V14.01,2013-05-19 06:13:00,
2013-05-18 23:19:00,54.3,34.5,30.09,South,180,0.0,0.0,47,0.00,,---,0.00,VWS V14.01,2013-05-19 06:19:00,
2013-05-18 23:24:00,54.1,34.4,30.09,WNW,292,2.0,2.0,47,0.00,,---,0.00,VWS V14.01,2013-05-19 06:24:00,
2013-05-18 23:29:00,54.0,34.2,30.09,North,0,0.0,0.0,47,0.00,,---,0.00,VWS V14.01,2013-05-19 06:29:00,
2013-05-18 23:34:00,53.8,34.0,30.09,SW,225,0.0,0.0,47,0.00,,---,0.00,VWS V14.01,2013-05-19 06:34:00,
2013-05-18 23:39:00,53.6,34.4,30.09,WSW,248,0.0,0.0,48,0.00,,---,0.00,VWS V14.01,2013-05-19 06:39:00,
2013-05-18 23:44:00,53.6,34.4,30.09,West,270,0.0,0.0,48,0.00,,---,0.00,VWS V14.01,2013-05-19 06:44:00,
2013-05-18 23:49:00,53.6,34.4,30.09,WSW,248,0.0,0.0,48,0.00,,---,0.00,VWS V14.01,2013-05-19 06:49:00,
2013-05-18 23:54:00,53.4,34.8,30.09,SW,225,2.2,2.2,49,0.00,,---,0.00,VWS V14.01,2013-05-19 06:54:00,
2013-05-18 23:59:00,53.4,34.8,30.09,NNW,338,3.6,3.6,49,0.00,,---,0.00,VWS V14.01,2013-05-19 06:59:00,